ウィーン の空港の天気 - METARとTAF

ウィーン国際空港 ( LOWW / VIE ) - オーストリア ウィーン
飛行場実況気象(Metar)
観測時間10/19 20:20 CEST (10/19 18:20 UTC)
風向・風速北西 4m/s
視程10km以上
天気現象
なし
気温14℃
湿度77%
気圧1022hPa
METARLOWW 191820Z 31007KT CAVOK 14/10 Q1022 NOSIG
過去の天気等 Google飛行場航空写真 Wunderground天気予報

過去48時間のMETAR

飛行場予報(TAF)
発表時間: 10/19 19:15 CEST (10/19 17:15 UTC)
予報対象時間: 19日20時 CEST ~ 21日2時 CEST
風向・風速北北西 3m/s
視程10km以上
なし
20日4時 CEST ~ 20日9時 CEST に一時的に
視程4000m
天気現象もや
なし
20日4時 CEST ~ 20日9時 CEST に 確率 30% で一時的に
視程2000m
全天の8割程度の雲 雲底高度 210m
20日10時 CEST ~ 20日12時 CEST に徐々に
風向・風速北 6m/s
TAF LOWW 191715Z 1918/2024 34005KT CAVOK TX18/2014Z TN08/2005Z
TEMPO 2002/2007 4000 BR NSC
PROB30 TEMPO 2002/2007 2000 BKN007
BECMG 2008/2010 35012KT